sensor_id;sensor_type;location;lat;lon;timestamp;P1;durP1;ratioP1;P2;durP2;ratioP2
8044;SDS011;4065;48.754;9.982;2023-06-24T00:00:42;6.45;;;5.47;;
8044;SDS011;4065;48.754;9.982;2023-06-24T00:04:05;6.03;;;5.43;;
8044;SDS011;4065;48.754;9.982;2023-06-24T00:07:27;7.07;;;5.18;;
8044;SDS011;4065;48.754;9.982;2023-06-24T00:10:49;6.80;;;5.05;;
8044;SDS011;4065;48.754;9.982;2023-06-24T00:14:12;5.78;;;5.13;;
8044;SDS011;4065;48.754;9.982;2023-06-24T00:17:35;5.70;;;4.68;;
8044;SDS011;4065;48.754;9.982;2023-06-24T00:20:59;6.70;;;5.80;;
8044;SDS011;4065;48.754;9.982;2023-06-24T00:24:21;6.45;;;5.40;;
8044;SDS011;4065;48.754;9.982;2023-06-24T00:27:45;5.85;;;5.25;;
8044;SDS011;4065;48.754;9.982;2023-06-24T00:31:07;6.35;;;5.20;;
8044;SDS011;4065;48.754;9.982;2023-06-24T00:34:34;5.85;;;5.22;;
8044;SDS011;4065;48.754;9.982;2023-06-24T00:37:57;5.70;;;5.15;;
8044;SDS011;4065;48.754;9.982;2023-06-24T00:41:19;6.47;;;5.10;;
8044;SDS011;4065;48.754;9.982;2023-06-24T00:44:41;6.00;;;5.28;;
8044;SDS011;4065;48.754;9.982;2023-06-24T00:48:03;5.80;;;5.13;;
8044;SDS011;4065;48.754;9.982;2023-06-24T00:51:25;6.15;;;5.55;;
8044;SDS011;4065;48.754;9.982;2023-06-24T00:54:52;5.70;;;5.20;;
8044;SDS011;4065;48.754;9.982;2023-06-24T00:58:13;5.38;;;4.85;;
8044;SDS011;4065;48.754;9.982;2023-06-24T01:01:37;6.03;;;5.20;;
8044;SDS011;4065;48.754;9.982;2023-06-24T01:04:59;6.55;;;5.05;;
8044;SDS011;4065;48.754;9.982;2023-06-24T01:08:21;7.60;;;4.95;;
8044;SDS011;4065;48.754;9.982;2023-06-24T01:11:45;6.63;;;5.00;;
8044;SDS011;4065;48.754;9.982;2023-06-24T01:15:07;7.60;;;5.18;;
8044;SDS011;4065;48.754;9.982;2023-06-24T01:18:32;7.32;;;5.43;;
8044;SDS011;4065;48.754;9.982;2023-06-24T01:22:00;5.72;;;5.10;;
8044;SDS011;4065;48.754;9.982;2023-06-24T01:25:40;6.63;;;5.53;;
8044;SDS011;4065;48.754;9.982;2023-06-24T01:32:56;5.43;;;4.93;;
8044;SDS011;4065;48.754;9.982;2023-06-24T01:36:20;5.53;;;4.95;;
8044;SDS011;4065;48.754;9.982;2023-06-24T01:39:46;6.50;;;5.25;;
8044;SDS011;4065;48.754;9.982;2023-06-24T01:43:09;6.20;;;5.50;;
8044;SDS011;4065;48.754;9.982;2023-06-24T01:46:31;5.60;;;5.10;;
8044;SDS011;4065;48.754;9.982;2023-06-24T01:49:55;5.80;;;5.20;;
8044;SDS011;4065;48.754;9.982;2023-06-24T01:53:19;7.47;;;5.13;;
8044;SDS011;4065;48.754;9.982;2023-06-24T01:56:42;6.15;;;5.30;;
8044;SDS011;4065;48.754;9.982;2023-06-24T02:00:05;6.25;;;5.35;;
8044;SDS011;4065;48.754;9.982;2023-06-24T02:03:29;6.53;;;5.45;;
8044;SDS011;4065;48.754;9.982;2023-06-24T02:06:52;7.55;;;5.20;;
8044;SDS011;4065;48.754;9.982;2023-06-24T02:10:15;7.47;;;5.43;;
8044;SDS011;4065;48.754;9.982;2023-06-24T02:13:38;6.72;;;5.82;;
8044;SDS011;4065;48.754;9.982;2023-06-24T02:17:02;6.60;;;5.55;;
8044;SDS011;4065;48.754;9.982;2023-06-24T02:20:25;5.97;;;5.00;;
8044;SDS011;4065;48.754;9.982;2023-06-24T02:23:50;6.00;;;5.40;;
8044;SDS011;4065;48.754;9.982;2023-06-24T02:27:12;5.82;;;5.18;;
8044;SDS011;4065;48.754;9.982;2023-06-24T02:30:35;7.40;;;5.63;;
8044;SDS011;4065;48.754;9.982;2023-06-24T02:33:57;8.95;;;5.63;;
8044;SDS011;4065;48.754;9.982;2023-06-24T02:37:19;7.13;;;5.55;;
8044;SDS011;4065;48.754;9.982;2023-06-24T02:40:44;7.03;;;5.32;;
8044;SDS011;4065;48.754;9.982;2023-06-24T02:44:06;6.65;;;5.43;;
8044;SDS011;4065;48.754;9.982;2023-06-24T02:47:28;7.80;;;5.65;;
8044;SDS011;4065;48.754;9.982;2023-06-24T02:50:50;7.20;;;5.38;;
8044;SDS011;4065;48.754;9.982;2023-06-24T02:54:12;7.68;;;5.57;;
8044;SDS011;4065;48.754;9.982;2023-06-24T02:57:36;6.40;;;5.40;;
8044;SDS011;4065;48.754;9.982;2023-06-24T03:00:59;6.55;;;5.88;;
8044;SDS011;4065;48.754;9.982;2023-06-24T03:04:23;5.43;;;4.93;;
8044;SDS011;4065;48.754;9.982;2023-06-24T03:07:45;5.90;;;5.18;;
8044;SDS011;4065;48.754;9.982;2023-06-24T03:11:07;5.80;;;5.22;;
8044;SDS011;4065;48.754;9.982;2023-06-24T03:14:30;5.93;;;5.32;;
8044;SDS011;4065;48.754;9.982;2023-06-24T03:17:52;6.55;;;5.88;;
8044;SDS011;4065;48.754;9.982;2023-06-24T03:21:14;6.40;;;5.10;;
8044;SDS011;4065;48.754;9.982;2023-06-24T03:24:36;6.28;;;5.68;;
8044;SDS011;4065;48.754;9.982;2023-06-24T03:27:58;6.78;;;5.32;;
8044;SDS011;4065;48.754;9.982;2023-06-24T03:31:22;6.07;;;5.40;;
8044;SDS011;4065;48.754;9.982;2023-06-24T03:34:44;8.10;;;5.63;;
8044;SDS011;4065;48.754;9.982;2023-06-24T03:38:06;7.40;;;5.75;;
8044;SDS011;4065;48.754;9.982;2023-06-24T03:41:28;7.78;;;5.43;;
8044;SDS011;4065;48.754;9.982;2023-06-24T03:44:50;6.18;;;5.60;;
8044;SDS011;4065;48.754;9.982;2023-06-24T03:48:13;5.65;;;5.07;;
8044;SDS011;4065;48.754;9.982;2023-06-24T03:51:35;6.38;;;5.13;;
8044;SDS011;4065;48.754;9.982;2023-06-24T03:54:57;6.63;;;5.20;;
8044;SDS011;4065;48.754;9.982;2023-06-24T03:58:19;7.88;;;5.90;;
8044;SDS011;4065;48.754;9.982;2023-06-24T04:01:41;7.40;;;5.38;;
8044;SDS011;4065;48.754;9.982;2023-06-24T04:05:05;5.82;;;4.97;;
8044;SDS011;4065;48.754;9.982;2023-06-24T04:08:28;9.15;;;5.75;;
8044;SDS011;4065;48.754;9.982;2023-06-24T04:11:50;7.82;;;4.68;;
8044;SDS011;4065;48.754;9.982;2023-06-24T04:15:12;6.00;;;5.40;;
8044;SDS011;4065;48.754;9.982;2023-06-24T04:18:34;6.38;;;5.13;;
8044;SDS011;4065;48.754;9.982;2023-06-24T04:22:01;7.35;;;5.25;;
8044;SDS011;4065;48.754;9.982;2023-06-24T04:25:23;6.20;;;5.43;;
8044;SDS011;4065;48.754;9.982;2023-06-24T04:28:45;8.50;;;5.53;;
8044;SDS011;4065;48.754;9.982;2023-06-24T04:32:07;6.22;;;5.05;;
8044;SDS011;4065;48.754;9.982;2023-06-24T04:35:29;8.32;;;6.15;;
8044;SDS011;4065;48.754;9.982;2023-06-24T04:38:52;5.70;;;5.05;;
8044;SDS011;4065;48.754;9.982;2023-06-24T04:42:14;5.80;;;5.30;;
8044;SDS011;4065;48.754;9.982;2023-06-24T04:45:36;5.53;;;5.00;;
8044;SDS011;4065;48.754;9.982;2023-06-24T04:48:58;6.82;;;5.47;;
8044;SDS011;4065;48.754;9.982;2023-06-24T04:52:20;5.10;;;4.63;;
8044;SDS011;4065;48.754;9.982;2023-06-24T04:55:43;6.15;;;5.10;;
8044;SDS011;4065;48.754;9.982;2023-06-24T04:59:05;6.40;;;5.10;;
8044;SDS011;4065;48.754;9.982;2023-06-24T05:02:27;9.57;;;5.78;;
8044;SDS011;4065;48.754;9.982;2023-06-24T05:05:48;5.00;;;4.50;;
8044;SDS011;4065;48.754;9.982;2023-06-24T05:09:10;6.85;;;5.03;;
8044;SDS011;4065;48.754;9.982;2023-06-24T05:12:35;6.07;;;5.47;;
8044;SDS011;4065;48.754;9.982;2023-06-24T05:15:57;6.63;;;4.85;;
8044;SDS011;4065;48.754;9.982;2023-06-24T05:19:19;6.93;;;5.60;;
8044;SDS011;4065;48.754;9.982;2023-06-24T05:22:41;5.60;;;4.90;;
8044;SDS011;4065;48.754;9.982;2023-06-24T05:26:02;7.05;;;5.57;;
8044;SDS011;4065;48.754;9.982;2023-06-24T05:29:26;7.95;;;5.60;;
8044;SDS011;4065;48.754;9.982;2023-06-24T05:32:48;7.68;;;6.07;;
8044;SDS011;4065;48.754;9.982;2023-06-24T05:36:10;7.15;;;5.57;;
8044;SDS011;4065;48.754;9.982;2023-06-24T05:39:32;7.72;;;6.20;;
8044;SDS011;4065;48.754;9.982;2023-06-24T05:42:53;6.70;;;6.00;;
8044;SDS011;4065;48.754;9.982;2023-06-24T05:46:17;6.72;;;6.00;;
8044;SDS011;4065;48.754;9.982;2023-06-24T05:49:39;6.72;;;5.80;;
8044;SDS011;4065;48.754;9.982;2023-06-24T05:53:01;7.57;;;5.60;;
8044;SDS011;4065;48.754;9.982;2023-06-24T05:56:22;6.25;;;5.05;;
8044;SDS011;4065;48.754;9.982;2023-06-24T05:59:44;7.28;;;5.10;;
8044;SDS011;4065;48.754;9.982;2023-06-24T06:03:08;6.72;;;4.85;;
8044;SDS011;4065;48.754;9.982;2023-06-24T06:06:30;6.95;;;5.72;;
8044;SDS011;4065;48.754;9.982;2023-06-24T06:09:51;6.68;;;5.50;;
8044;SDS011;4065;48.754;9.982;2023-06-24T06:13:13;5.68;;;4.90;;
8044;SDS011;4065;48.754;9.982;2023-06-24T06:16:35;7.25;;;4.90;;
8044;SDS011;4065;48.754;9.982;2023-06-24T06:20:00;4.97;;;4.50;;
8044;SDS011;4065;48.754;9.982;2023-06-24T06:23:22;6.03;;;4.72;;
8044;SDS011;4065;48.754;9.982;2023-06-24T06:26:44;7.40;;;5.55;;
8044;SDS011;4065;48.754;9.982;2023-06-24T06:30:06;5.20;;;4.70;;
8044;SDS011;4065;48.754;9.982;2023-06-24T06:33:29;5.13;;;4.63;;
8044;SDS011;4065;48.754;9.982;2023-06-24T06:36:52;5.40;;;4.70;;
8044;SDS011;4065;48.754;9.982;2023-06-24T06:40:14;4.93;;;4.40;;
8044;SDS011;4065;48.754;9.982;2023-06-24T06:43:37;5.07;;;4.57;;
8044;SDS011;4065;48.754;9.982;2023-06-24T06:47:02;5.03;;;4.22;;
8044;SDS011;4065;48.754;9.982;2023-06-24T06:50:24;5.43;;;4.93;;
8044;SDS011;4065;48.754;9.982;2023-06-24T06:53:47;5.05;;;4.55;;
8044;SDS011;4065;48.754;9.982;2023-06-24T06:57:09;5.10;;;4.47;;
8044;SDS011;4065;48.754;9.982;2023-06-24T07:00:33;6.30;;;4.85;;
8044;SDS011;4065;48.754;9.982;2023-06-24T07:03:55;5.82;;;4.75;;
8044;SDS011;4065;48.754;9.982;2023-06-24T07:07:17;5.53;;;4.78;;
8044;SDS011;4065;48.754;9.982;2023-06-24T07:10:41;6.25;;;4.95;;
8044;SDS011;4065;48.754;9.982;2023-06-24T07:14:08;6.78;;;4.45;;
8044;SDS011;4065;48.754;9.982;2023-06-24T07:17:30;7.47;;;5.57;;
8044;SDS011;4065;48.754;9.982;2023-06-24T07:20:53;7.38;;;4.78;;
8044;SDS011;4065;48.754;9.982;2023-06-24T07:24:15;6.43;;;5.00;;
8044;SDS011;4065;48.754;9.982;2023-06-24T07:27:40;7.53;;;5.18;;
8044;SDS011;4065;48.754;9.982;2023-06-24T07:31:02;5.50;;;4.90;;
8044;SDS011;4065;48.754;9.982;2023-06-24T07:34:24;6.15;;;5.55;;
8044;SDS011;4065;48.754;9.982;2023-06-24T07:37:47;6.57;;;4.78;;
8044;SDS011;4065;48.754;9.982;2023-06-24T07:41:09;6.18;;;5.57;;
8044;SDS011;4065;48.754;9.982;2023-06-24T07:44:32;5.90;;;5.30;;
8044;SDS011;4065;48.754;9.982;2023-06-24T07:47:57;6.32;;;5.72;;
8044;SDS011;4065;48.754;9.982;2023-06-24T07:51:18;7.85;;;6.00;;
8044;SDS011;4065;48.754;9.982;2023-06-24T07:54:40;8.13;;;6.53;;
8044;SDS011;4065;48.754;9.982;2023-06-24T07:58:02;6.18;;;5.47;;
8044;SDS011;4065;48.754;9.982;2023-06-24T08:01:28;9.07;;;5.82;;
8044;SDS011;4065;48.754;9.982;2023-06-24T08:04:50;8.18;;;5.50;;
8044;SDS011;4065;48.754;9.982;2023-06-24T08:08:12;7.43;;;5.75;;
8044;SDS011;4065;48.754;9.982;2023-06-24T08:11:34;7.38;;;6.20;;
8044;SDS011;4065;48.754;9.982;2023-06-24T08:14:58;7.50;;;5.57;;
8044;SDS011;4065;48.754;9.982;2023-06-24T08:18:21;6.53;;;5.82;;
8044;SDS011;4065;48.754;9.982;2023-06-24T08:21:43;6.72;;;5.50;;
8044;SDS011;4065;48.754;9.982;2023-06-24T08:25:07;5.90;;;5.30;;
8044;SDS011;4065;48.754;9.982;2023-06-24T08:28:29;6.68;;;5.50;;
8044;SDS011;4065;48.754;9.982;2023-06-24T08:31:51;6.30;;;4.85;;
8044;SDS011;4065;48.754;9.982;2023-06-24T08:35:15;6.20;;;4.68;;
8044;SDS011;4065;48.754;9.982;2023-06-24T08:38:37;7.55;;;4.95;;
8044;SDS011;4065;48.754;9.982;2023-06-24T08:41:59;5.53;;;5.00;;
8044;SDS011;4065;48.754;9.982;2023-06-24T08:45:21;5.15;;;4.30;;
8044;SDS011;4065;48.754;9.982;2023-06-24T08:48:44;4.65;;;4.03;;
8044;SDS011;4065;48.754;9.982;2023-06-24T08:52:09;4.97;;;4.47;;
8044;SDS011;4065;48.754;9.982;2023-06-24T08:55:36;5.95;;;4.90;;
8044;SDS011;4065;48.754;9.982;2023-06-24T08:59:01;6.25;;;4.70;;
8044;SDS011;4065;48.754;9.982;2023-06-24T09:02:25;6.78;;;5.25;;
8044;SDS011;4065;48.754;9.982;2023-06-24T09:05:48;5.70;;;4.45;;
8044;SDS011;4065;48.754;9.982;2023-06-24T09:09:18;8.18;;;5.18;;
8044;SDS011;4065;48.754;9.982;2023-06-24T09:12:40;5.70;;;4.43;;
8044;SDS011;4065;48.754;9.982;2023-06-24T09:16:12;6.40;;;5.20;;
8044;SDS011;4065;48.754;9.982;2023-06-24T09:19:35;6.78;;;5.25;;
8044;SDS011;4065;48.754;9.982;2023-06-24T09:22:57;6.43;;;5.13;;
8044;SDS011;4065;48.754;9.982;2023-06-24T09:26:23;7.93;;;4.57;;
8044;SDS011;4065;48.754;9.982;2023-06-24T09:29:46;7.40;;;5.60;;
8044;SDS011;4065;48.754;9.982;2023-06-24T09:33:10;5.35;;;4.53;;
8044;SDS011;4065;48.754;9.982;2023-06-24T09:36:33;6.03;;;4.45;;
8044;SDS011;4065;48.754;9.982;2023-06-24T09:39:55;6.35;;;4.65;;
8044;SDS011;4065;48.754;9.982;2023-06-24T09:43:21;5.10;;;4.60;;
8044;SDS011;4065;48.754;9.982;2023-06-24T09:46:42;6.53;;;4.70;;
8044;SDS011;4065;48.754;9.982;2023-06-24T09:50:05;5.30;;;4.15;;
8044;SDS011;4065;48.754;9.982;2023-06-24T09:53:27;6.57;;;4.88;;
8044;SDS011;4065;48.754;9.982;2023-06-24T09:56:52;6.15;;;4.65;;
8044;SDS011;4065;48.754;9.982;2023-06-24T10:00:18;7.10;;;5.10;;
8044;SDS011;4065;48.754;9.982;2023-06-24T10:03:41;4.85;;;4.35;;
8044;SDS011;4065;48.754;9.982;2023-06-24T10:07:03;8.00;;;4.93;;
8044;SDS011;4065;48.754;9.982;2023-06-24T10:10:25;12.68;;;5.43;;
8044;SDS011;4065;48.754;9.982;2023-06-24T10:13:47;5.00;;;4.25;;
8044;SDS011;4065;48.754;9.982;2023-06-24T10:17:11;6.28;;;4.60;;
8044;SDS011;4065;48.754;9.982;2023-06-24T10:20:35;6.90;;;4.40;;
8044;SDS011;4065;48.754;9.982;2023-06-24T10:23:58;4.40;;;4.00;;
8044;SDS011;4065;48.754;9.982;2023-06-24T10:27:20;5.15;;;3.92;;
8044;SDS011;4065;48.754;9.982;2023-06-24T10:30:51;4.93;;;3.88;;
8044;SDS011;4065;48.754;9.982;2023-06-24T10:34:21;4.95;;;4.35;;
8044;SDS011;4065;48.754;9.982;2023-06-24T10:37:49;5.15;;;4.55;;
8044;SDS011;4065;48.754;9.982;2023-06-24T10:41:16;4.15;;;3.65;;
8044;SDS011;4065;48.754;9.982;2023-06-24T10:44:44;4.72;;;4.20;;
8044;SDS011;4065;48.754;9.982;2023-06-24T10:48:06;4.88;;;3.67;;
8044;SDS011;4065;48.754;9.982;2023-06-24T10:51:29;4.43;;;4.03;;
8044;SDS011;4065;48.754;9.982;2023-06-24T10:54:51;4.45;;;4.05;;
8044;SDS011;4065;48.754;9.982;2023-06-24T10:58:14;4.70;;;3.90;;
8044;SDS011;4065;48.754;9.982;2023-06-24T11:01:36;4.45;;;3.65;;
8044;SDS011;4065;48.754;9.982;2023-06-24T11:05:13;4.93;;;3.92;;
8044;SDS011;4065;48.754;9.982;2023-06-24T11:08:43;4.00;;;3.60;;
8044;SDS011;4065;48.754;9.982;2023-06-24T11:12:07;5.15;;;4.18;;
8044;SDS011;4065;48.754;9.982;2023-06-24T11:15:31;4.28;;;3.55;;
8044;SDS011;4065;48.754;9.982;2023-06-24T11:18:53;4.13;;;3.72;;
8044;SDS011;4065;48.754;9.982;2023-06-24T11:22:15;5.43;;;3.83;;
8044;SDS011;4065;48.754;9.982;2023-06-24T11:25:42;3.80;;;3.50;;
8044;SDS011;4065;48.754;9.982;2023-06-24T11:29:09;3.90;;;3.55;;
8044;SDS011;4065;48.754;9.982;2023-06-24T11:32:37;4.18;;;3.72;;
8044;SDS011;4065;48.754;9.982;2023-06-24T11:35:59;4.40;;;3.70;;
8044;SDS011;4065;48.754;9.982;2023-06-24T11:39:21;4.95;;;4.03;;
8044;SDS011;4065;48.754;9.982;2023-06-24T11:42:45;5.22;;;3.72;;
8044;SDS011;4065;48.754;9.982;2023-06-24T11:46:08;4.35;;;3.92;;
8044;SDS011;4065;48.754;9.982;2023-06-24T11:49:30;4.72;;;4.28;;
8044;SDS011;4065;48.754;9.982;2023-06-24T11:52:52;4.97;;;3.63;;
8044;SDS011;4065;48.754;9.982;2023-06-24T11:56:15;4.82;;;3.95;;
8044;SDS011;4065;48.754;9.982;2023-06-24T11:59:38;4.15;;;3.75;;
8044;SDS011;4065;48.754;9.982;2023-06-24T12:03:01;4.55;;;4.03;;
8044;SDS011;4065;48.754;9.982;2023-06-24T12:06:23;4.97;;;3.78;;
8044;SDS011;4065;48.754;9.982;2023-06-24T12:09:45;5.53;;;3.80;;
8044;SDS011;4065;48.754;9.982;2023-06-24T12:13:07;4.35;;;3.88;;
8044;SDS011;4065;48.754;9.982;2023-06-24T12:16:31;4.30;;;3.75;;
8044;SDS011;4065;48.754;9.982;2023-06-24T12:19:52;4.05;;;3.42;;
8044;SDS011;4065;48.754;9.982;2023-06-24T12:23:14;4.43;;;3.97;;
8044;SDS011;4065;48.754;9.982;2023-06-24T12:26:36;4.22;;;3.83;;
8044;SDS011;4065;48.754;9.982;2023-06-24T12:29:58;4.50;;;3.88;;
8044;SDS011;4065;48.754;9.982;2023-06-24T12:33:21;3.80;;;3.40;;
8044;SDS011;4065;48.754;9.982;2023-06-24T12:36:43;3.90;;;3.50;;
8044;SDS011;4065;48.754;9.982;2023-06-24T12:40:06;3.83;;;3.33;;
8044;SDS011;4065;48.754;9.982;2023-06-24T12:43:28;3.83;;;3.20;;
8044;SDS011;4065;48.754;9.982;2023-06-24T12:46:50;4.38;;;3.97;;
8044;SDS011;4065;48.754;9.982;2023-06-24T12:50:13;4.05;;;3.65;;
8044;SDS011;4065;48.754;9.982;2023-06-24T12:53:35;3.63;;;3.30;;
8044;SDS011;4065;48.754;9.982;2023-06-24T12:56:57;4.47;;;3.70;;
8044;SDS011;4065;48.754;9.982;2023-06-24T13:00:19;4.32;;;3.92;;
8044;SDS011;4065;48.754;9.982;2023-06-24T13:03:41;4.07;;;3.67;;
8044;SDS011;4065;48.754;9.982;2023-06-24T13:07:05;4.65;;;4.03;;
8044;SDS011;4065;48.754;9.982;2023-06-24T13:10:27;4.53;;;3.53;;
8044;SDS011;4065;48.754;9.982;2023-06-24T13:13:49;4.47;;;4.07;;
8044;SDS011;4065;48.754;9.982;2023-06-24T13:17:11;4.25;;;3.70;;
8044;SDS011;4065;48.754;9.982;2023-06-24T13:20:33;3.63;;;3.30;;
8044;SDS011;4065;48.754;9.982;2023-06-24T13:23:57;4.18;;;3.47;;
8044;SDS011;4065;48.754;9.982;2023-06-24T13:27:19;6.75;;;3.90;;
8044;SDS011;4065;48.754;9.982;2023-06-24T13:30:41;4.00;;;3.53;;
8044;SDS011;4065;48.754;9.982;2023-06-24T13:34:02;4.15;;;3.55;;
8044;SDS011;4065;48.754;9.982;2023-06-24T13:37:26;4.30;;;3.90;;
8044;SDS011;4065;48.754;9.982;2023-06-24T13:40:52;4.60;;;3.70;;
8044;SDS011;4065;48.754;9.982;2023-06-24T13:44:14;3.90;;;3.55;;
8044;SDS011;4065;48.754;9.982;2023-06-24T13:47:35;4.55;;;3.72;;
8044;SDS011;4065;48.754;9.982;2023-06-24T13:50:57;4.30;;;3.50;;
8044;SDS011;4065;48.754;9.982;2023-06-24T13:54:19;4.28;;;3.88;;
8044;SDS011;4065;48.754;9.982;2023-06-24T13:57:43;4.00;;;3.60;;
8044;SDS011;4065;48.754;9.982;2023-06-24T14:01:06;4.03;;;3.47;;
8044;SDS011;4065;48.754;9.982;2023-06-24T14:04:31;3.78;;;3.40;;
8044;SDS011;4065;48.754;9.982;2023-06-24T14:07:53;4.13;;;3.50;;
8044;SDS011;4065;48.754;9.982;2023-06-24T14:11:15;5.20;;;3.80;;
8044;SDS011;4065;48.754;9.982;2023-06-24T14:14:38;3.97;;;3.42;;
8044;SDS011;4065;48.754;9.982;2023-06-24T14:18:00;3.83;;;3.40;;
8044;SDS011;4065;48.754;9.982;2023-06-24T14:21:24;4.68;;;3.55;;
8044;SDS011;4065;48.754;9.982;2023-06-24T14:24:46;4.30;;;3.40;;
8044;SDS011;4065;48.754;9.982;2023-06-24T14:28:08;5.82;;;4.10;;
8044;SDS011;4065;48.754;9.982;2023-06-24T14:31:34;3.65;;;3.35;;
8044;SDS011;4065;48.754;9.982;2023-06-24T14:34:58;4.43;;;3.58;;
8044;SDS011;4065;48.754;9.982;2023-06-24T14:38:20;4.65;;;3.70;;
8044;SDS011;4065;48.754;9.982;2023-06-24T14:41:42;4.10;;;3.55;;
8044;SDS011;4065;48.754;9.982;2023-06-24T14:45:04;4.15;;;3.55;;
8044;SDS011;4065;48.754;9.982;2023-06-24T14:48:28;4.00;;;3.60;;
8044;SDS011;4065;48.754;9.982;2023-06-24T14:51:51;3.72;;;3.40;;
8044;SDS011;4065;48.754;9.982;2023-06-24T14:55:14;4.57;;;4.00;;
8044;SDS011;4065;48.754;9.982;2023-06-24T14:58:36;4.25;;;3.40;;
8044;SDS011;4065;48.754;9.982;2023-06-24T15:01:58;3.92;;;3.53;;
8044;SDS011;4065;48.754;9.982;2023-06-24T15:05:21;3.90;;;3.38;;
8044;SDS011;4065;48.754;9.982;2023-06-24T15:08:43;4.40;;;4.00;;
8044;SDS011;4065;48.754;9.982;2023-06-24T15:12:05;4.28;;;3.88;;
8044;SDS011;4065;48.754;9.982;2023-06-24T15:15:28;4.70;;;3.72;;
8044;SDS011;4065;48.754;9.982;2023-06-24T15:18:50;3.90;;;3.50;;
8044;SDS011;4065;48.754;9.982;2023-06-24T15:22:13;5.25;;;3.60;;
8044;SDS011;4065;48.754;9.982;2023-06-24T15:25:39;4.95;;;3.70;;
8044;SDS011;4065;48.754;9.982;2023-06-24T15:29:01;4.35;;;3.80;;
8044;SDS011;4065;48.754;9.982;2023-06-24T15:32:26;5.97;;;4.10;;
8044;SDS011;4065;48.754;9.982;2023-06-24T15:35:47;3.88;;;3.53;;
8044;SDS011;4065;48.754;9.982;2023-06-24T15:39:11;5.00;;;3.90;;
8044;SDS011;4065;48.754;9.982;2023-06-24T15:42:33;4.28;;;3.88;;
8044;SDS011;4065;48.754;9.982;2023-06-24T15:45:55;4.32;;;3.92;;
8044;SDS011;4065;48.754;9.982;2023-06-24T15:49:17;5.28;;;3.58;;
8044;SDS011;4065;48.754;9.982;2023-06-24T15:52:42;4.20;;;3.80;;
8044;SDS011;4065;48.754;9.982;2023-06-24T15:56:05;4.97;;;3.72;;
8044;SDS011;4065;48.754;9.982;2023-06-24T15:59:30;4.82;;;4.00;;
8044;SDS011;4065;48.754;9.982;2023-06-24T16:02:52;4.10;;;3.42;;
8044;SDS011;4065;48.754;9.982;2023-06-24T16:06:14;4.22;;;3.83;;
8044;SDS011;4065;48.754;9.982;2023-06-24T16:09:36;4.63;;;4.07;;
8044;SDS011;4065;48.754;9.982;2023-06-24T16:12:59;6.10;;;3.97;;
8044;SDS011;4065;48.754;9.982;2023-06-24T16:16:21;4.43;;;3.58;;
8044;SDS011;4065;48.754;9.982;2023-06-24T16:19:43;4.50;;;3.55;;
8044;SDS011;4065;48.754;9.982;2023-06-24T16:23:05;4.72;;;3.80;;
8044;SDS011;4065;48.754;9.982;2023-06-24T16:26:27;4.10;;;3.70;;
8044;SDS011;4065;48.754;9.982;2023-06-24T16:29:50;4.22;;;3.78;;
8044;SDS011;4065;48.754;9.982;2023-06-24T16:33:12;3.80;;;3.45;;
8044;SDS011;4065;48.754;9.982;2023-06-24T16:36:34;4.72;;;3.67;;
8044;SDS011;4065;48.754;9.982;2023-06-24T16:39:56;4.45;;;3.60;;
8044;SDS011;4065;48.754;9.982;2023-06-24T16:43:18;5.35;;;4.55;;
8044;SDS011;4065;48.754;9.982;2023-06-24T16:46:41;4.85;;;4.25;;
8044;SDS011;4065;48.754;9.982;2023-06-24T16:50:03;4.95;;;4.10;;
8044;SDS011;4065;48.754;9.982;2023-06-24T16:53:25;5.35;;;3.75;;
8044;SDS011;4065;48.754;9.982;2023-06-24T16:56:49;5.68;;;4.15;;
8044;SDS011;4065;48.754;9.982;2023-06-24T17:00:12;4.18;;;3.70;;
8044;SDS011;4065;48.754;9.982;2023-06-24T17:03:36;4.70;;;4.25;;
8044;SDS011;4065;48.754;9.982;2023-06-24T17:07:01;3.95;;;3.63;;
8044;SDS011;4065;48.754;9.982;2023-06-24T17:10:23;4.97;;;4.05;;
8044;SDS011;4065;48.754;9.982;2023-06-24T17:13:45;4.57;;;4.03;;
8044;SDS011;4065;48.754;9.982;2023-06-24T17:17:07;5.22;;;3.83;;
8044;SDS011;4065;48.754;9.982;2023-06-24T17:20:34;4.20;;;3.80;;
8044;SDS011;4065;48.754;9.982;2023-06-24T17:23:55;4.18;;;3.78;;
8044;SDS011;4065;48.754;9.982;2023-06-24T17:27:17;4.45;;;4.03;;
8044;SDS011;4065;48.754;9.982;2023-06-24T17:30:39;4.97;;;3.90;;
8044;SDS011;4065;48.754;9.982;2023-06-24T17:34:01;8.70;;;4.13;;
8044;SDS011;4065;48.754;9.982;2023-06-24T17:37:24;4.35;;;3.75;;
8044;SDS011;4065;48.754;9.982;2023-06-24T17:40:46;4.63;;;3.97;;
8044;SDS011;4065;48.754;9.982;2023-06-24T17:44:08;4.85;;;4.38;;
8044;SDS011;4065;48.754;9.982;2023-06-24T17:47:30;6.05;;;4.47;;
8044;SDS011;4065;48.754;9.982;2023-06-24T17:50:52;5.20;;;4.30;;
8044;SDS011;4065;48.754;9.982;2023-06-24T17:54:17;5.32;;;4.60;;
8044;SDS011;4065;48.754;9.982;2023-06-24T17:57:39;7.72;;;4.32;;
8044;SDS011;4065;48.754;9.982;2023-06-24T18:01:01;5.05;;;4.30;;
8044;SDS011;4065;48.754;9.982;2023-06-24T18:04:23;4.53;;;4.13;;
8044;SDS011;4065;48.754;9.982;2023-06-24T18:07:45;6.95;;;4.57;;
8044;SDS011;4065;48.754;9.982;2023-06-24T18:11:08;5.88;;;4.72;;
8044;SDS011;4065;48.754;9.982;2023-06-24T18:14:30;4.63;;;4.20;;
8044;SDS011;4065;48.754;9.982;2023-06-24T18:17:52;5.32;;;4.25;;
8044;SDS011;4065;48.754;9.982;2023-06-24T18:21:14;4.45;;;4.05;;
8044;SDS011;4065;48.754;9.982;2023-06-24T18:24:37;6.10;;;4.90;;
8044;SDS011;4065;48.754;9.982;2023-06-24T18:28:01;4.57;;;4.18;;
8044;SDS011;4065;48.754;9.982;2023-06-24T18:31:23;4.90;;;4.45;;
8044;SDS011;4065;48.754;9.982;2023-06-24T18:34:45;5.78;;;4.95;;
8044;SDS011;4065;48.754;9.982;2023-06-24T18:38:08;5.90;;;4.63;;
8044;SDS011;4065;48.754;9.982;2023-06-24T18:41:30;4.85;;;4.38;;
8044;SDS011;4065;48.754;9.982;2023-06-24T18:44:54;5.90;;;5.30;;
8044;SDS011;4065;48.754;9.982;2023-06-24T18:48:15;6.30;;;5.15;;
8044;SDS011;4065;48.754;9.982;2023-06-24T18:51:37;7.85;;;5.22;;
8044;SDS011;4065;48.754;9.982;2023-06-24T18:55:00;6.35;;;5.25;;
8044;SDS011;4065;48.754;9.982;2023-06-24T18:58:22;6.10;;;4.53;;
8044;SDS011;4065;48.754;9.982;2023-06-24T19:01:45;6.53;;;5.72;;
8044;SDS011;4065;48.754;9.982;2023-06-24T19:05:07;6.72;;;5.43;;
8044;SDS011;4065;48.754;9.982;2023-06-24T19:08:29;7.32;;;5.53;;
8044;SDS011;4065;48.754;9.982;2023-06-24T19:11:51;6.95;;;5.78;;
8044;SDS011;4065;48.754;9.982;2023-06-24T19:15:13;8.38;;;6.30;;
8044;SDS011;4065;48.754;9.982;2023-06-24T19:18:36;8.57;;;6.43;;
8044;SDS011;4065;48.754;9.982;2023-06-24T19:21:58;6.07;;;5.40;;
8044;SDS011;4065;48.754;9.982;2023-06-24T19:25:23;7.95;;;5.50;;
8044;SDS011;4065;48.754;9.982;2023-06-24T19:28:45;6.82;;;5.72;;
8044;SDS011;4065;48.754;9.982;2023-06-24T19:32:07;6.38;;;5.78;;
8044;SDS011;4065;48.754;9.982;2023-06-24T19:35:30;7.38;;;6.47;;
8044;SDS011;4065;48.754;9.982;2023-06-24T19:38:52;7.85;;;6.55;;
8044;SDS011;4065;48.754;9.982;2023-06-24T19:42:14;7.30;;;6.60;;
8044;SDS011;4065;48.754;9.982;2023-06-24T19:45:36;7.20;;;6.25;;
8044;SDS011;4065;48.754;9.982;2023-06-24T19:48:58;7.22;;;6.53;;
8044;SDS011;4065;48.754;9.982;2023-06-24T19:52:21;7.20;;;6.50;;
8044;SDS011;4065;48.754;9.982;2023-06-24T19:55:43;7.43;;;6.63;;
8044;SDS011;4065;48.754;9.982;2023-06-24T19:59:05;8.52;;;6.25;;
8044;SDS011;4065;48.754;9.982;2023-06-24T20:02:27;6.32;;;5.65;;
8044;SDS011;4065;48.754;9.982;2023-06-24T20:05:49;6.60;;;6.00;;
8044;SDS011;4065;48.754;9.982;2023-06-24T20:09:12;7.15;;;5.80;;
8044;SDS011;4065;48.754;9.982;2023-06-24T20:12:34;6.97;;;5.97;;
8044;SDS011;4065;48.754;9.982;2023-06-24T20:15:56;7.57;;;6.63;;
8044;SDS011;4065;48.754;9.982;2023-06-24T20:19:18;6.72;;;6.03;;
8044;SDS011;4065;48.754;9.982;2023-06-24T20:22:40;6.75;;;6.10;;
8044;SDS011;4065;48.754;9.982;2023-06-24T20:26:04;9.77;;;6.13;;
8044;SDS011;4065;48.754;9.982;2023-06-24T20:29:25;6.75;;;5.93;;
8044;SDS011;4065;48.754;9.982;2023-06-24T20:32:48;7.30;;;5.60;;
8044;SDS011;4065;48.754;9.982;2023-06-24T20:36:10;6.68;;;6.07;;
8044;SDS011;4065;48.754;9.982;2023-06-24T20:39:32;6.60;;;5.90;;
8044;SDS011;4065;48.754;9.982;2023-06-24T20:42:56;7.07;;;6.38;;
8044;SDS011;4065;48.754;9.982;2023-06-24T20:46:18;7.28;;;6.57;;
8044;SDS011;4065;48.754;9.982;2023-06-24T20:49:40;7.47;;;6.68;;
8044;SDS011;4065;48.754;9.982;2023-06-24T20:53:02;6.63;;;6.03;;
8044;SDS011;4065;48.754;9.982;2023-06-24T20:56:25;7.20;;;6.47;;
8044;SDS011;4065;48.754;9.982;2023-06-24T20:59:49;7.82;;;6.97;;
8044;SDS011;4065;48.754;9.982;2023-06-24T21:03:10;6.60;;;6.00;;